sensor_id;sensor_type;location;lat;lon;timestamp;P1;durP1;ratioP1;P2;durP2;ratioP2
26038;SDS011;13815;52.374;4.882;2022-08-21T00:01:02;17.10;;;15.88;;
26038;SDS011;13815;52.374;4.882;2022-08-21T00:03:28;16.30;;;15.13;;
26038;SDS011;13815;52.374;4.882;2022-08-21T00:05:54;15.50;;;14.80;;
26038;SDS011;13815;52.374;4.882;2022-08-21T00:08:20;14.23;;;13.63;;
26038;SDS011;13815;52.374;4.882;2022-08-21T00:10:46;13.55;;;13.05;;
26038;SDS011;13815;52.374;4.882;2022-08-21T00:13:12;12.85;;;12.35;;
26038;SDS011;13815;52.374;4.882;2022-08-21T00:15:38;13.18;;;12.20;;
26038;SDS011;13815;52.374;4.882;2022-08-21T00:18:05;11.57;;;11.18;;
26038;SDS011;13815;52.374;4.882;2022-08-21T00:20:32;11.85;;;11.10;;
26038;SDS011;13815;52.374;4.882;2022-08-21T00:22:58;10.93;;;10.52;;
26038;SDS011;13815;52.374;4.882;2022-08-21T00:25:24;10.70;;;10.30;;
26038;SDS011;13815;52.374;4.882;2022-08-21T00:27:50;11.93;;;11.10;;
26038;SDS011;13815;52.374;4.882;2022-08-21T00:30:18;11.88;;;10.63;;
26038;SDS011;13815;52.374;4.882;2022-08-21T00:32:44;9.75;;;9.45;;
26038;SDS011;13815;52.374;4.882;2022-08-21T00:35:11;9.85;;;9.10;;
26038;SDS011;13815;52.374;4.882;2022-08-21T00:37:39;10.00;;;9.70;;
26038;SDS011;13815;52.374;4.882;2022-08-21T00:40:05;8.52;;;8.23;;
26038;SDS011;13815;52.374;4.882;2022-08-21T00:42:34;9.10;;;8.23;;
26038;SDS011;13815;52.374;4.882;2022-08-21T00:44:59;7.50;;;7.10;;
26038;SDS011;13815;52.374;4.882;2022-08-21T00:47:25;6.60;;;6.40;;
26038;SDS011;13815;52.374;4.882;2022-08-21T00:49:50;7.25;;;6.53;;
26038;SDS011;13815;52.374;4.882;2022-08-21T00:52:17;5.80;;;5.70;;
26038;SDS011;13815;52.374;4.882;2022-08-21T00:54:44;6.40;;;6.00;;
26038;SDS011;13815;52.374;4.882;2022-08-21T00:57:13;8.82;;;6.05;;
26038;SDS011;13815;52.374;4.882;2022-08-21T00:59:41;5.35;;;5.25;;
26038;SDS011;13815;52.374;4.882;2022-08-21T01:02:11;4.80;;;4.70;;
26038;SDS011;13815;52.374;4.882;2022-08-21T01:04:37;5.10;;;5.00;;
26038;SDS011;13815;52.374;4.882;2022-08-21T01:07:02;5.60;;;5.28;;
26038;SDS011;13815;52.374;4.882;2022-08-21T01:09:28;5.82;;;5.72;;
26038;SDS011;13815;52.374;4.882;2022-08-21T01:11:54;6.30;;;6.10;;
26038;SDS011;13815;52.374;4.882;2022-08-21T01:14:19;10.98;;;7.07;;
26038;SDS011;13815;52.374;4.882;2022-08-21T01:16:46;8.43;;;6.53;;
26038;SDS011;13815;52.374;4.882;2022-08-21T01:19:14;5.75;;;5.65;;
26038;SDS011;13815;52.374;4.882;2022-08-21T01:21:41;6.40;;;6.10;;
26038;SDS011;13815;52.374;4.882;2022-08-21T01:24:07;6.93;;;6.30;;
26038;SDS011;13815;52.374;4.882;2022-08-21T01:26:33;6.10;;;6.00;;
26038;SDS011;13815;52.374;4.882;2022-08-21T01:29:05;6.65;;;6.38;;
26038;SDS011;13815;52.374;4.882;2022-08-21T01:31:49;6.95;;;6.53;;
26038;SDS011;13815;52.374;4.882;2022-08-21T01:34:15;6.10;;;5.90;;
26038;SDS011;13815;52.374;4.882;2022-08-21T01:36:41;5.40;;;5.30;;
26038;SDS011;13815;52.374;4.882;2022-08-21T01:39:07;5.78;;;5.47;;
26038;SDS011;13815;52.374;4.882;2022-08-21T01:41:34;5.95;;;5.38;;
26038;SDS011;13815;52.374;4.882;2022-08-21T01:43:59;5.60;;;5.30;;
26038;SDS011;13815;52.374;4.882;2022-08-21T01:46:24;5.10;;;4.68;;
26038;SDS011;13815;52.374;4.882;2022-08-21T01:48:50;5.50;;;5.03;;
26038;SDS011;13815;52.374;4.882;2022-08-21T01:51:15;4.20;;;4.10;;
26038;SDS011;13815;52.374;4.882;2022-08-21T01:53:41;5.07;;;4.57;;
26038;SDS011;13815;52.374;4.882;2022-08-21T01:56:07;7.20;;;4.13;;
26038;SDS011;13815;52.374;4.882;2022-08-21T01:58:34;2.75;;;2.75;;
26038;SDS011;13815;52.374;4.882;2022-08-21T02:01:00;5.03;;;3.85;;
26038;SDS011;13815;52.374;4.882;2022-08-21T02:03:27;4.10;;;2.97;;
26038;SDS011;13815;52.374;4.882;2022-08-21T02:05:55;2.50;;;2.50;;
26038;SDS011;13815;52.374;4.882;2022-08-21T02:08:20;4.18;;;2.65;;
26038;SDS011;13815;52.374;4.882;2022-08-21T02:10:48;2.03;;;2.03;;
26038;SDS011;13815;52.374;4.882;2022-08-21T02:13:14;4.15;;;2.20;;
26038;SDS011;13815;52.374;4.882;2022-08-21T02:15:40;5.35;;;2.30;;
26038;SDS011;13815;52.374;4.882;2022-08-21T02:18:06;1.50;;;1.50;;
26038;SDS011;13815;52.374;4.882;2022-08-21T02:20:36;3.22;;;1.75;;
26038;SDS011;13815;52.374;4.882;2022-08-21T02:23:06;1.60;;;1.60;;
26038;SDS011;13815;52.374;4.882;2022-08-21T02:25:32;1.48;;;1.48;;
26038;SDS011;13815;52.374;4.882;2022-08-21T02:27:58;2.05;;;1.70;;
26038;SDS011;13815;52.374;4.882;2022-08-21T02:30:25;2.05;;;1.50;;
26038;SDS011;13815;52.374;4.882;2022-08-21T02:32:52;2.78;;;1.30;;
26038;SDS011;13815;52.374;4.882;2022-08-21T02:35:18;2.28;;;1.25;;
26038;SDS011;13815;52.374;4.882;2022-08-21T02:37:45;1.00;;;1.00;;
26038;SDS011;13815;52.374;4.882;2022-08-21T02:40:12;2.05;;;1.33;;
26038;SDS011;13815;52.374;4.882;2022-08-21T02:42:38;6.18;;;1.80;;
26038;SDS011;13815;52.374;4.882;2022-08-21T02:45:05;0.80;;;0.80;;
26038;SDS011;13815;52.374;4.882;2022-08-21T02:47:31;0.80;;;0.80;;
26038;SDS011;13815;52.374;4.882;2022-08-21T02:49:59;2.60;;;1.10;;
26038;SDS011;13815;52.374;4.882;2022-08-21T02:52:24;0.90;;;0.90;;
26038;SDS011;13815;52.374;4.882;2022-08-21T02:54:50;1.88;;;0.95;;
26038;SDS011;13815;52.374;4.882;2022-08-21T02:57:15;2.15;;;0.90;;
26038;SDS011;13815;52.374;4.882;2022-08-21T02:59:41;0.60;;;0.60;;
26038;SDS011;13815;52.374;4.882;2022-08-21T03:02:06;1.38;;;0.80;;
26038;SDS011;13815;52.374;4.882;2022-08-21T03:04:32;2.30;;;0.90;;
26038;SDS011;13815;52.374;4.882;2022-08-21T03:06:57;0.50;;;0.50;;
26038;SDS011;13815;52.374;4.882;2022-08-21T03:09:23;2.08;;;0.77;;
26038;SDS011;13815;52.374;4.882;2022-08-21T03:11:49;3.58;;;1.30;;
26038;SDS011;13815;52.374;4.882;2022-08-21T03:14:16;0.88;;;0.88;;
26038;SDS011;13815;52.374;4.882;2022-08-21T03:16:42;2.15;;;1.98;;
26038;SDS011;13815;52.374;4.882;2022-08-21T03:19:07;0.70;;;0.70;;
26038;SDS011;13815;52.374;4.882;2022-08-21T03:21:33;1.10;;;1.10;;
26038;SDS011;13815;52.374;4.882;2022-08-21T03:23:58;7.38;;;2.15;;
26038;SDS011;13815;52.374;4.882;2022-08-21T03:26:23;2.30;;;2.20;;
26038;SDS011;13815;52.374;4.882;2022-08-21T03:28:49;5.63;;;1.55;;
26038;SDS011;13815;52.374;4.882;2022-08-21T03:31:15;0.60;;;0.60;;
26038;SDS011;13815;52.374;4.882;2022-08-21T03:33:42;0.70;;;0.70;;
26038;SDS011;13815;52.374;4.882;2022-08-21T03:36:08;2.13;;;0.98;;
26038;SDS011;13815;52.374;4.882;2022-08-21T03:38:35;2.38;;;0.73;;
26038;SDS011;13815;52.374;4.882;2022-08-21T03:41:02;0.50;;;0.50;;
26038;SDS011;13815;52.374;4.882;2022-08-21T03:43:28;1.80;;;0.70;;
26038;SDS011;13815;52.374;4.882;2022-08-21T03:45:53;2.50;;;0.73;;
26038;SDS011;13815;52.374;4.882;2022-08-21T03:48:19;0.47;;;0.47;;
26038;SDS011;13815;52.374;4.882;2022-08-21T03:50:45;2.70;;;0.80;;
26038;SDS011;13815;52.374;4.882;2022-08-21T03:53:12;4.72;;;1.55;;
26038;SDS011;13815;52.374;4.882;2022-08-21T03:55:38;4.95;;;0.93;;
26038;SDS011;13815;52.374;4.882;2022-08-21T03:58:03;4.47;;;0.77;;
26038;SDS011;13815;52.374;4.882;2022-08-21T04:00:29;5.82;;;1.13;;
26038;SDS011;13815;52.374;4.882;2022-08-21T04:02:54;2.72;;;0.60;;
26038;SDS011;13815;52.374;4.882;2022-08-21T04:05:20;0.43;;;0.43;;
26038;SDS011;13815;52.374;4.882;2022-08-21T04:07:55;0.30;;;0.30;;
26038;SDS011;13815;52.374;4.882;2022-08-21T04:10:25;4.38;;;0.65;;
26038;SDS011;13815;52.374;4.882;2022-08-21T04:12:51;0.82;;;0.82;;
26038;SDS011;13815;52.374;4.882;2022-08-21T04:15:17;3.63;;;0.65;;
26038;SDS011;13815;52.374;4.882;2022-08-21T04:17:43;3.67;;;0.60;;
26038;SDS011;13815;52.374;4.882;2022-08-21T04:20:08;0.30;;;0.30;;
26038;SDS011;13815;52.374;4.882;2022-08-21T04:22:34;4.32;;;1.40;;
26038;SDS011;13815;52.374;4.882;2022-08-21T04:24:59;6.63;;;1.05;;
26038;SDS011;13815;52.374;4.882;2022-08-21T04:27:24;0.10;;;0.10;;
26038;SDS011;13815;52.374;4.882;2022-08-21T04:29:50;0.10;;;0.10;;
26038;SDS011;13815;52.374;4.882;2022-08-21T04:32:24;0.13;;;0.13;;
26038;SDS011;13815;52.374;4.882;2022-08-21T04:34:50;0.60;;;0.20;;
26038;SDS011;13815;52.374;4.882;2022-08-21T04:37:16;0.45;;;0.40;;
26038;SDS011;13815;52.374;4.882;2022-08-21T04:39:42;1.45;;;0.35;;
26038;SDS011;13815;52.374;4.882;2022-08-21T04:42:08;1.00;;;0.32;;
26038;SDS011;13815;52.374;4.882;2022-08-21T04:44:34;0.10;;;0.10;;
26038;SDS011;13815;52.374;4.882;2022-08-21T04:46:59;1.10;;;0.30;;
26038;SDS011;13815;52.374;4.882;2022-08-21T04:49:25;1.55;;;0.30;;
26038;SDS011;13815;52.374;4.882;2022-08-21T04:51:51;0.85;;;0.30;;
26038;SDS011;13815;52.374;4.882;2022-08-21T04:54:17;0.90;;;0.30;;
26038;SDS011;13815;52.374;4.882;2022-08-21T04:56:45;0.00;;;0.00;;
26038;SDS011;13815;52.374;4.882;2022-08-21T04:59:13;0.00;;;0.00;;
26038;SDS011;13815;52.374;4.882;2022-08-21T05:01:41;0.00;;;0.00;;
26038;SDS011;13815;52.374;4.882;2022-08-21T05:04:07;0.00;;;0.00;;
26038;SDS011;13815;52.374;4.882;2022-08-21T05:06:36;1.75;;;0.28;;
26038;SDS011;13815;52.374;4.882;2022-08-21T05:09:02;1.65;;;0.20;;
26038;SDS011;13815;52.374;4.882;2022-08-21T05:11:29;1.35;;;0.28;;
26038;SDS011;13815;52.374;4.882;2022-08-21T05:13:55;2.25;;;0.47;;
26038;SDS011;13815;52.374;4.882;2022-08-21T05:16:21;1.85;;;0.25;;
26038;SDS011;13815;52.374;4.882;2022-08-21T05:18:46;0.22;;;0.00;;
26038;SDS011;13815;52.374;4.882;2022-08-21T05:21:11;4.10;;;0.70;;
26038;SDS011;13815;52.374;4.882;2022-08-21T05:23:37;4.10;;;0.65;;
26038;SDS011;13815;52.374;4.882;2022-08-21T05:26:02;1.20;;;0.20;;
26038;SDS011;13815;52.374;4.882;2022-08-21T05:28:29;0.00;;;0.00;;
26038;SDS011;13815;52.374;4.882;2022-08-21T05:30:55;0.20;;;0.05;;
26038;SDS011;13815;52.374;4.882;2022-08-21T05:33:20;0.00;;;0.00;;
26038;SDS011;13815;52.374;4.882;2022-08-21T05:35:48;0.00;;;0.00;;
26038;SDS011;13815;52.374;4.882;2022-08-21T05:38:16;1.45;;;0.20;;
26038;SDS011;13815;52.374;4.882;2022-08-21T05:40:41;0.00;;;0.00;;
26038;SDS011;13815;52.374;4.882;2022-08-21T05:43:06;1.38;;;0.20;;
26038;SDS011;13815;52.374;4.882;2022-08-21T05:45:32;1.17;;;0.20;;
26038;SDS011;13815;52.374;4.882;2022-08-21T05:47:58;1.73;;;0.20;;
26038;SDS011;13815;52.374;4.882;2022-08-21T05:52:56;0.00;;;0.00;;
26038;SDS011;13815;52.374;4.882;2022-08-21T05:55:21;1.08;;;0.22;;
26038;SDS011;13815;52.374;4.882;2022-08-21T05:57:49;1.00;;;0.20;;
26038;SDS011;13815;52.374;4.882;2022-08-21T06:00:15;1.05;;;0.30;;
26038;SDS011;13815;52.374;4.882;2022-08-21T06:02:41;1.13;;;0.15;;
26038;SDS011;13815;52.374;4.882;2022-08-21T06:05:07;1.65;;;0.20;;
26038;SDS011;13815;52.374;4.882;2022-08-21T06:07:33;0.32;;;0.10;;
26038;SDS011;13815;52.374;4.882;2022-08-21T06:09:58;0.70;;;0.20;;
26038;SDS011;13815;52.374;4.882;2022-08-21T06:12:23;1.27;;;0.20;;
26038;SDS011;13815;52.374;4.882;2022-08-21T06:14:50;1.27;;;0.20;;
26038;SDS011;13815;52.374;4.882;2022-08-21T06:17:17;0.90;;;0.20;;
26038;SDS011;13815;52.374;4.882;2022-08-21T06:19:42;0.43;;;0.20;;
26038;SDS011;13815;52.374;4.882;2022-08-21T06:22:08;0.25;;;0.08;;
26038;SDS011;13815;52.374;4.882;2022-08-21T06:24:33;1.02;;;0.22;;
26038;SDS011;13815;52.374;4.882;2022-08-21T06:27:03;1.25;;;0.20;;
26038;SDS011;13815;52.374;4.882;2022-08-21T06:29:30;0.70;;;0.30;;
26038;SDS011;13815;52.374;4.882;2022-08-21T06:31:55;1.38;;;0.10;;
26038;SDS011;13815;52.374;4.882;2022-08-21T06:34:21;0.00;;;0.00;;
26038;SDS011;13815;52.374;4.882;2022-08-21T06:36:46;0.43;;;0.43;;
26038;SDS011;13815;52.374;4.882;2022-08-21T06:39:11;3.40;;;0.30;;
26038;SDS011;13815;52.374;4.882;2022-08-21T06:41:38;0.93;;;0.10;;
26038;SDS011;13815;52.374;4.882;2022-08-21T06:44:04;0.00;;;0.00;;
26038;SDS011;13815;52.374;4.882;2022-08-21T06:46:29;1.85;;;0.45;;
26038;SDS011;13815;52.374;4.882;2022-08-21T06:48:55;0.63;;;0.20;;
26038;SDS011;13815;52.374;4.882;2022-08-21T06:51:21;0.25;;;0.17;;
26038;SDS011;13815;52.374;4.882;2022-08-21T06:53:47;0.47;;;0.20;;
26038;SDS011;13815;52.374;4.882;2022-08-21T06:56:13;0.10;;;0.10;;
26038;SDS011;13815;52.374;4.882;2022-08-21T06:58:38;0.00;;;0.00;;
26038;SDS011;13815;52.374;4.882;2022-08-21T07:01:04;0.10;;;0.00;;
26038;SDS011;13815;52.374;4.882;2022-08-21T07:03:31;0.80;;;0.20;;
26038;SDS011;13815;52.374;4.882;2022-08-21T07:06:00;0.30;;;0.10;;
26038;SDS011;13815;52.374;4.882;2022-08-21T07:08:26;0.00;;;0.00;;
26038;SDS011;13815;52.374;4.882;2022-08-21T07:10:53;0.00;;;0.00;;
26038;SDS011;13815;52.374;4.882;2022-08-21T07:13:20;0.00;;;0.00;;
26038;SDS011;13815;52.374;4.882;2022-08-21T07:15:45;0.85;;;0.28;;
26038;SDS011;13815;52.374;4.882;2022-08-21T07:18:11;0.10;;;0.08;;
26038;SDS011;13815;52.374;4.882;2022-08-21T07:20:38;0.30;;;0.15;;
26038;SDS011;13815;52.374;4.882;2022-08-21T07:23:05;0.65;;;0.20;;
26038;SDS011;13815;52.374;4.882;2022-08-21T07:25:32;0.32;;;0.10;;
26038;SDS011;13815;52.374;4.882;2022-08-21T07:27:58;0.43;;;0.13;;
26038;SDS011;13815;52.374;4.882;2022-08-21T07:30:23;0.52;;;0.20;;
26038;SDS011;13815;52.374;4.882;2022-08-21T07:32:49;0.00;;;0.00;;
26038;SDS011;13815;52.374;4.882;2022-08-21T07:35:15;1.00;;;0.20;;
26038;SDS011;13815;52.374;4.882;2022-08-21T07:37:41;0.00;;;0.00;;
26038;SDS011;13815;52.374;4.882;2022-08-21T07:40:07;0.00;;;0.00;;
26038;SDS011;13815;52.374;4.882;2022-08-21T07:42:33;0.00;;;0.00;;
26038;SDS011;13815;52.374;4.882;2022-08-21T07:44:58;0.00;;;0.00;;
26038;SDS011;13815;52.374;4.882;2022-08-21T07:47:23;1.65;;;0.20;;
26038;SDS011;13815;52.374;4.882;2022-08-21T07:49:49;1.65;;;0.20;;
26038;SDS011;13815;52.374;4.882;2022-08-21T07:52:14;0.30;;;0.05;;
26038;SDS011;13815;52.374;4.882;2022-08-21T07:54:40;1.55;;;0.20;;
26038;SDS011;13815;52.374;4.882;2022-08-21T07:57:05;0.00;;;0.00;;
26038;SDS011;13815;52.374;4.882;2022-08-21T07:59:31;0.00;;;0.00;;
26038;SDS011;13815;52.374;4.882;2022-08-21T08:01:56;2.20;;;0.20;;
26038;SDS011;13815;52.374;4.882;2022-08-21T08:04:22;0.00;;;0.00;;
26038;SDS011;13815;52.374;4.882;2022-08-21T08:06:47;2.25;;;0.22;;
26038;SDS011;13815;52.374;4.882;2022-08-21T08:09:12;0.00;;;0.00;;
26038;SDS011;13815;52.374;4.882;2022-08-21T08:11:38;1.88;;;0.22;;
26038;SDS011;13815;52.374;4.882;2022-08-21T08:14:06;1.35;;;0.20;;
26038;SDS011;13815;52.374;4.882;2022-08-21T08:16:31;2.45;;;0.22;;
26038;SDS011;13815;52.374;4.882;2022-08-21T08:18:57;0.00;;;0.00;;
26038;SDS011;13815;52.374;4.882;2022-08-21T08:21:22;2.17;;;0.25;;
26038;SDS011;13815;52.374;4.882;2022-08-21T08:23:48;0.00;;;0.00;;
26038;SDS011;13815;52.374;4.882;2022-08-21T08:26:13;0.00;;;0.00;;
26038;SDS011;13815;52.374;4.882;2022-08-21T08:28:40;1.45;;;0.22;;
26038;SDS011;13815;52.374;4.882;2022-08-21T08:31:06;0.00;;;0.00;;
26038;SDS011;13815;52.374;4.882;2022-08-21T08:33:31;0.00;;;0.00;;
26038;SDS011;13815;52.374;4.882;2022-08-21T08:35:56;1.27;;;0.25;;
26038;SDS011;13815;52.374;4.882;2022-08-21T08:38:22;1.17;;;0.22;;
26038;SDS011;13815;52.374;4.882;2022-08-21T08:43:33;0.00;;;0.00;;
26038;SDS011;13815;52.374;4.882;2022-08-21T08:46:01;0.43;;;0.13;;
26038;SDS011;13815;52.374;4.882;2022-08-21T08:48:44;0.65;;;0.20;;
26038;SDS011;13815;52.374;4.882;2022-08-21T08:51:16;0.75;;;0.28;;
26038;SDS011;13815;52.374;4.882;2022-08-21T08:53:49;0.00;;;0.00;;
26038;SDS011;13815;52.374;4.882;2022-08-21T08:56:19;0.00;;;0.00;;
26038;SDS011;13815;52.374;4.882;2022-08-21T08:58:48;0.00;;;0.00;;
26038;SDS011;13815;52.374;4.882;2022-08-21T09:01:16;0.00;;;0.00;;
26038;SDS011;13815;52.374;4.882;2022-08-21T09:03:43;1.65;;;0.45;;
26038;SDS011;13815;52.374;4.882;2022-08-21T09:19:33;0.00;;;0.00;;
26038;SDS011;13815;52.374;4.882;2022-08-21T09:24:33;1.73;;;0.20;;
26038;SDS011;13815;52.374;4.882;2022-08-21T09:27:12;0.00;;;0.00;;
26038;SDS011;13815;52.374;4.882;2022-08-21T09:29:40;1.25;;;0.30;;
26038;SDS011;13815;52.374;4.882;2022-08-21T09:32:21;0.98;;;0.30;;
26038;SDS011;13815;52.374;4.882;2022-08-21T09:34:58;1.17;;;0.30;;
26038;SDS011;13815;52.374;4.882;2022-08-21T09:37:25;0.95;;;0.25;;
26038;SDS011;13815;52.374;4.882;2022-08-21T09:39:57;2.35;;;0.50;;
26038;SDS011;13815;52.374;4.882;2022-08-21T09:42:25;0.80;;;0.30;;
26038;SDS011;13815;52.374;4.882;2022-08-21T09:45:04;1.85;;;0.30;;
26038;SDS011;13815;52.374;4.882;2022-08-21T09:47:33;0.20;;;0.20;;
26038;SDS011;13815;52.374;4.882;2022-08-21T09:50:06;0.20;;;0.20;;
26038;SDS011;13815;52.374;4.882;2022-08-21T09:55:07;0.60;;;0.60;;
26038;SDS011;13815;52.374;4.882;2022-08-21T09:58:01;3.15;;;2.80;;
26038;SDS011;13815;52.374;4.882;2022-08-21T10:00:29;4.80;;;4.40;;
26038;SDS011;13815;52.374;4.882;2022-08-21T10:05:34;10.57;;;10.00;;
26038;SDS011;13815;52.374;4.882;2022-08-21T10:08:00;15.35;;;14.02;;
26038;SDS011;13815;52.374;4.882;2022-08-21T10:10:28;19.75;;;18.23;;
26038;SDS011;13815;52.374;4.882;2022-08-21T10:13:06;22.42;;;20.42;;
26038;SDS011;13815;52.374;4.882;2022-08-21T10:20:46;26.60;;;22.70;;
26038;SDS011;13815;52.374;4.882;2022-08-21T10:23:22;26.85;;;23.95;;
26038;SDS011;13815;52.374;4.882;2022-08-21T10:26:02;28.38;;;25.15;;
26038;SDS011;13815;52.374;4.882;2022-08-21T10:28:50;26.60;;;23.90;;
26038;SDS011;13815;52.374;4.882;2022-08-21T10:36:46;27.25;;;24.27;;
26038;SDS011;13815;52.374;4.882;2022-08-21T10:39:31;26.60;;;23.80;;
26038;SDS011;13815;52.374;4.882;2022-08-21T10:42:17;36.00;;;24.52;;
26038;SDS011;13815;52.374;4.882;2022-08-21T10:47:53;27.45;;;24.65;;
26038;SDS011;13815;52.374;4.882;2022-08-21T10:50:26;35.40;;;25.35;;
26038;SDS011;13815;52.374;4.882;2022-08-21T10:58:35;28.40;;;25.05;;
26038;SDS011;13815;52.374;4.882;2022-08-21T11:01:13;27.10;;;24.30;;
26038;SDS011;13815;52.374;4.882;2022-08-21T11:03:45;26.92;;;24.02;;
26038;SDS011;13815;52.374;4.882;2022-08-21T11:06:14;29.83;;;24.35;;
26038;SDS011;13815;52.374;4.882;2022-08-21T11:08:43;26.75;;;23.85;;
26038;SDS011;13815;52.374;4.882;2022-08-21T11:11:12;29.58;;;24.60;;
26038;SDS011;13815;52.374;4.882;2022-08-21T11:16:26;30.23;;;24.63;;
26038;SDS011;13815;52.374;4.882;2022-08-21T11:19:21;31.40;;;24.30;;
26038;SDS011;13815;52.374;4.882;2022-08-21T11:24:34;32.00;;;24.58;;
26038;SDS011;13815;52.374;4.882;2022-08-21T11:29:49;30.60;;;25.08;;
26038;SDS011;13815;52.374;4.882;2022-08-21T11:40:59;34.35;;;25.90;;
26038;SDS011;13815;52.374;4.882;2022-08-21T11:43:41;31.33;;;25.38;;
26038;SDS011;13815;52.374;4.882;2022-08-21T11:46:28;31.50;;;25.40;;
26038;SDS011;13815;52.374;4.882;2022-08-21T11:49:39;32.78;;;25.50;;
26038;SDS011;13815;52.374;4.882;2022-08-21T11:52:21;32.10;;;24.95;;
26038;SDS011;13815;52.374;4.882;2022-08-21T11:54:52;32.05;;;24.88;;
26038;SDS011;13815;52.374;4.882;2022-08-21T11:59:58;32.03;;;25.38;;
26038;SDS011;13815;52.374;4.882;2022-08-21T12:02:33;34.15;;;26.33;;
26038;SDS011;13815;52.374;4.882;2022-08-21T12:05:05;32.22;;;25.48;;
26038;SDS011;13815;52.374;4.882;2022-08-21T12:10:12;34.63;;;26.50;;
26038;SDS011;13815;52.374;4.882;2022-08-21T12:12:40;32.83;;;25.63;;
26038;SDS011;13815;52.374;4.882;2022-08-21T12:17:57;34.25;;;25.40;;
26038;SDS011;13815;52.374;4.882;2022-08-21T12:20:42;34.13;;;26.20;;
26038;SDS011;13815;52.374;4.882;2022-08-21T12:23:32;33.88;;;25.95;;
26038;SDS011;13815;52.374;4.882;2022-08-21T12:26:03;34.15;;;25.48;;
26038;SDS011;13815;52.374;4.882;2022-08-21T12:28:36;35.10;;;26.40;;
26038;SDS011;13815;52.374;4.882;2022-08-21T12:31:02;33.63;;;25.95;;
26038;SDS011;13815;52.374;4.882;2022-08-21T12:33:31;32.60;;;26.08;;
26038;SDS011;13815;52.374;4.882;2022-08-21T12:36:15;32.83;;;25.67;;
26038;SDS011;13815;52.374;4.882;2022-08-21T12:38:48;30.70;;;24.88;;
26038;SDS011;13815;52.374;4.882;2022-08-21T12:42:18;33.58;;;26.25;;
26038;SDS011;13815;52.374;4.882;2022-08-21T12:44:36;32.53;;;25.50;;
26038;SDS011;13815;52.374;4.882;2022-08-21T12:47:06;33.55;;;25.48;;
26038;SDS011;13815;52.374;4.882;2022-08-21T12:49:53;33.35;;;25.77;;
26038;SDS011;13815;52.374;4.882;2022-08-21T12:52:34;33.25;;;25.02;;
26038;SDS011;13815;52.374;4.882;2022-08-21T12:55:02;34.53;;;25.58;;
26038;SDS011;13815;52.374;4.882;2022-08-21T12:57:29;34.97;;;25.35;;
26038;SDS011;13815;52.374;4.882;2022-08-21T12:59:59;34.38;;;24.45;;
26038;SDS011;13815;52.374;4.882;2022-08-21T13:02:29;34.60;;;24.67;;
26038;SDS011;13815;52.374;4.882;2022-08-21T13:04:57;33.97;;;24.40;;
26038;SDS011;13815;52.374;4.882;2022-08-21T13:07:27;33.13;;;24.27;;
26038;SDS011;13815;52.374;4.882;2022-08-21T13:09:56;32.85;;;24.05;;
26038;SDS011;13815;52.374;4.882;2022-08-21T13:12:42;34.70;;;24.58;;
26038;SDS011;13815;52.374;4.882;2022-08-21T13:15:07;34.22;;;24.67;;
26038;SDS011;13815;52.374;4.882;2022-08-21T13:17:34;35.50;;;24.88;;
26038;SDS011;13815;52.374;4.882;2022-08-21T13:20:36;35.63;;;25.17;;
26038;SDS011;13815;52.374;4.882;2022-08-21T13:22:55;33.75;;;24.42;;
26038;SDS011;13815;52.374;4.882;2022-08-21T13:25:21;33.63;;;24.58;;
26038;SDS011;13815;52.374;4.882;2022-08-21T13:28:05;33.88;;;24.67;;
26038;SDS011;13815;52.374;4.882;2022-08-21T13:30:34;32.25;;;24.05;;
26038;SDS011;13815;52.374;4.882;2022-08-21T13:33:01;33.35;;;24.45;;
26038;SDS011;13815;52.374;4.882;2022-08-21T13:35:36;35.20;;;24.55;;
26038;SDS011;13815;52.374;4.882;2022-08-21T13:38:12;33.65;;;24.58;;
26038;SDS011;13815;52.374;4.882;2022-08-21T13:40:40;34.63;;;24.95;;
26038;SDS011;13815;52.374;4.882;2022-08-21T13:43:17;36.30;;;25.48;;
26038;SDS011;13815;52.374;4.882;2022-08-21T13:45:48;36.55;;;25.40;;
26038;SDS011;13815;52.374;4.882;2022-08-21T13:48:14;35.13;;;24.98;;
26038;SDS011;13815;52.374;4.882;2022-08-21T13:50:40;36.35;;;25.52;;
26038;SDS011;13815;52.374;4.882;2022-08-21T13:53:07;36.70;;;25.30;;
26038;SDS011;13815;52.374;4.882;2022-08-21T13:55:34;36.97;;;25.80;;
26038;SDS011;13815;52.374;4.882;2022-08-21T13:58:06;36.20;;;25.67;;
26038;SDS011;13815;52.374;4.882;2022-08-21T14:00:33;35.83;;;25.55;;
26038;SDS011;13815;52.374;4.882;2022-08-21T14:03:07;36.67;;;24.77;;
26038;SDS011;13815;52.374;4.882;2022-08-21T14:05:35;36.22;;;25.23;;
26038;SDS011;13815;52.374;4.882;2022-08-21T14:08:21;38.08;;;25.80;;
26038;SDS011;13815;52.374;4.882;2022-08-21T14:10:52;34.92;;;25.67;;
26038;SDS011;13815;52.374;4.882;2022-08-21T14:13:28;35.58;;;25.42;;
26038;SDS011;13815;52.374;4.882;2022-08-21T14:15:56;35.83;;;25.17;;
26038;SDS011;13815;52.374;4.882;2022-08-21T14:18:23;35.00;;;25.40;;
26038;SDS011;13815;52.374;4.882;2022-08-21T14:20:50;36.33;;;26.20;;
26038;SDS011;13815;52.374;4.882;2022-08-21T14:23:25;36.15;;;26.40;;
26038;SDS011;13815;52.374;4.882;2022-08-21T14:25:51;35.50;;;25.90;;
26038;SDS011;13815;52.374;4.882;2022-08-21T14:28:24;36.42;;;25.92;;
26038;SDS011;13815;52.374;4.882;2022-08-21T14:30:52;35.55;;;26.40;;
26038;SDS011;13815;52.374;4.882;2022-08-21T14:33:20;37.70;;;27.77;;
26038;SDS011;13815;52.374;4.882;2022-08-21T14:35:50;34.67;;;26.83;;
26038;SDS011;13815;52.374;4.882;2022-08-21T14:40:57;35.10;;;26.40;;
26038;SDS011;13815;52.374;4.882;2022-08-21T14:43:25;34.72;;;25.80;;
26038;SDS011;13815;52.374;4.882;2022-08-21T14:45:52;36.97;;;27.02;;
26038;SDS011;13815;52.374;4.882;2022-08-21T14:48:18;34.10;;;25.65;;
26038;SDS011;13815;52.374;4.882;2022-08-21T14:50:43;34.83;;;26.02;;
26038;SDS011;13815;52.374;4.882;2022-08-21T14:53:09;36.67;;;25.83;;
26038;SDS011;13815;52.374;4.882;2022-08-21T14:55:36;34.40;;;25.00;;
26038;SDS011;13815;52.374;4.882;2022-08-21T14:58:21;35.90;;;25.27;;
26038;SDS011;13815;52.374;4.882;2022-08-21T15:00:48;35.22;;;24.73;;
26038;SDS011;13815;52.374;4.882;2022-08-21T15:03:14;36.00;;;25.90;;
26038;SDS011;13815;52.374;4.882;2022-08-21T15:05:40;35.88;;;25.83;;
26038;SDS011;13815;52.374;4.882;2022-08-21T15:08:05;35.75;;;25.70;;
26038;SDS011;13815;52.374;4.882;2022-08-21T15:10:31;36.08;;;25.80;;
26038;SDS011;13815;52.374;4.882;2022-08-21T15:12:57;35.47;;;26.30;;
26038;SDS011;13815;52.374;4.882;2022-08-21T15:15:23;35.45;;;26.30;;
26038;SDS011;13815;52.374;4.882;2022-08-21T15:17:48;35.50;;;25.55;;
26038;SDS011;13815;52.374;4.882;2022-08-21T15:20:13;34.70;;;26.48;;
26038;SDS011;13815;52.374;4.882;2022-08-21T15:22:39;35.60;;;26.23;;
26038;SDS011;13815;52.374;4.882;2022-08-21T15:25:04;36.75;;;26.30;;
26038;SDS011;13815;52.374;4.882;2022-08-21T15:27:30;36.00;;;26.08;;
26038;SDS011;13815;52.374;4.882;2022-08-21T15:29:56;40.67;;;26.88;;
26038;SDS011;13815;52.374;4.882;2022-08-21T15:32:25;41.55;;;28.10;;
26038;SDS011;13815;52.374;4.882;2022-08-21T15:34:53;38.72;;;27.60;;
26038;SDS011;13815;52.374;4.882;2022-08-21T15:37:19;37.22;;;28.13;;
26038;SDS011;13815;52.374;4.882;2022-08-21T15:39:44;37.08;;;27.65;;
26038;SDS011;13815;52.374;4.882;2022-08-21T15:42:10;38.88;;;28.40;;
26038;SDS011;13815;52.374;4.882;2022-08-21T15:44:36;38.00;;;28.40;;
26038;SDS011;13815;52.374;4.882;2022-08-21T15:47:03;38.15;;;27.75;;
26038;SDS011;13815;52.374;4.882;2022-08-21T15:49:28;37.33;;;27.65;;
26038;SDS011;13815;52.374;4.882;2022-08-21T15:51:54;37.95;;;28.40;;
26038;SDS011;13815;52.374;4.882;2022-08-21T15:54:19;38.60;;;28.38;;
26038;SDS011;13815;52.374;4.882;2022-08-21T15:56:45;37.38;;;28.90;;
26038;SDS011;13815;52.374;4.882;2022-08-21T15:59:13;38.75;;;27.90;;